sensor_id;sensor_type;location;lat;lon;timestamp;pressure;altitude;pressure_sealevel;temperature;humidity
10518;BME280;5307;42.548;22.968;2023-01-29T00:00:21;93905.84;;;-0.16;100.00
10518;BME280;5307;42.548;22.968;2023-01-29T00:02:48;93920.50;;;0.08;100.00
10518;BME280;5307;42.548;22.968;2023-01-29T00:05:15;93920.50;;;0.05;100.00
10518;BME280;5307;42.548;22.968;2023-01-29T00:07:43;93909.38;;;0.10;100.00
10518;BME280;5307;42.548;22.968;2023-01-29T00:10:10;93911.31;;;0.13;100.00
10518;BME280;5307;42.548;22.968;2023-01-29T00:12:37;93929.69;;;0.04;100.00
10518;BME280;5307;42.548;22.968;2023-01-29T00:15:05;93923.53;;;-0.04;100.00
10518;BME280;5307;42.548;22.968;2023-01-29T00:17:32;93924.28;;;-0.04;100.00
10518;BME280;5307;42.548;22.968;2023-01-29T00:19:59;93925.69;;;-0.35;100.00
10518;BME280;5307;42.548;22.968;2023-01-29T00:22:26;93919.19;;;-0.30;100.00
10518;BME280;5307;42.548;22.968;2023-01-29T00:24:59;93921.94;;;-0.19;100.00
10518;BME280;5307;42.548;22.968;2023-01-29T00:27:25;93934.19;;;-0.22;100.00
10518;BME280;5307;42.548;22.968;2023-01-29T00:29:52;93924.16;;;-0.32;100.00
10518;BME280;5307;42.548;22.968;2023-01-29T00:32:32;93933.44;;;-0.15;100.00
10518;BME280;5307;42.548;22.968;2023-01-29T00:34:59;93924.34;;;0.04;100.00
10518;BME280;5307;42.548;22.968;2023-01-29T00:37:26;93921.69;;;0.18;100.00
10518;BME280;5307;42.548;22.968;2023-01-29T00:39:53;93919.72;;;0.08;100.00
10518;BME280;5307;42.548;22.968;2023-01-29T00:42:21;93923.13;;;-0.10;100.00
10518;BME280;5307;42.548;22.968;2023-01-29T00:45:06;93928.13;;;-0.05;100.00
10518;BME280;5307;42.548;22.968;2023-01-29T00:47:33;93934.97;;;-0.18;100.00
10518;BME280;5307;42.548;22.968;2023-01-29T00:50:00;93924.66;;;-0.05;100.00
10518;BME280;5307;42.548;22.968;2023-01-29T00:52:27;93928.94;;;0.07;100.00
10518;BME280;5307;42.548;22.968;2023-01-29T00:54:56;93930.00;;;-0.16;100.00
10518;BME280;5307;42.548;22.968;2023-01-29T00:57:28;93928.94;;;0.14;100.00
10518;BME280;5307;42.548;22.968;2023-01-29T00:59:55;93933.06;;;-0.17;100.00
10518;BME280;5307;42.548;22.968;2023-01-29T01:02:22;93928.44;;;-0.24;100.00
10518;BME280;5307;42.548;22.968;2023-01-29T01:05:08;93925.44;;;-0.01;100.00
10518;BME280;5307;42.548;22.968;2023-01-29T01:07:38;93927.41;;;0.06;100.00
10518;BME280;5307;42.548;22.968;2023-01-29T01:10:06;93927.75;;;-0.07;100.00
10518;BME280;5307;42.548;22.968;2023-01-29T01:12:51;93928.19;;;0.13;100.00
10518;BME280;5307;42.548;22.968;2023-01-29T01:15:19;93917.09;;;0.22;100.00
10518;BME280;5307;42.548;22.968;2023-01-29T01:17:46;93930.88;;;0.13;100.00
10518;BME280;5307;42.548;22.968;2023-01-29T01:20:14;93922.34;;;-0.14;100.00
10518;BME280;5307;42.548;22.968;2023-01-29T01:22:41;93918.16;;;-0.04;100.00
10518;BME280;5307;42.548;22.968;2023-01-29T01:25:08;93923.56;;;0.03;100.00
10518;BME280;5307;42.548;22.968;2023-01-29T01:27:35;93917.47;;;0.24;100.00
10518;BME280;5307;42.548;22.968;2023-01-29T01:30:09;93927.50;;;0.41;100.00
10518;BME280;5307;42.548;22.968;2023-01-29T01:32:37;93919.78;;;0.25;100.00
10518;BME280;5307;42.548;22.968;2023-01-29T01:35:04;93924.00;;;0.26;100.00
10518;BME280;5307;42.548;22.968;2023-01-29T01:37:31;93932.47;;;0.28;100.00
10518;BME280;5307;42.548;22.968;2023-01-29T01:40:02;93930.56;;;0.29;100.00
10518;BME280;5307;42.548;22.968;2023-01-29T01:42:30;93938.56;;;0.22;100.00
10518;BME280;5307;42.548;22.968;2023-01-29T01:44:59;93937.00;;;0.14;100.00
10518;BME280;5307;42.548;22.968;2023-01-29T01:47:37;93925.88;;;0.12;100.00
10518;BME280;5307;42.548;22.968;2023-01-29T01:50:08;93937.44;;;0.23;100.00
10518;BME280;5307;42.548;22.968;2023-01-29T01:52:39;93933.59;;;0.17;100.00
10518;BME280;5307;42.548;22.968;2023-01-29T01:55:10;93943.19;;;0.21;100.00
10518;BME280;5307;42.548;22.968;2023-01-29T01:57:38;93937.03;;;0.24;100.00
10518;BME280;5307;42.548;22.968;2023-01-29T02:00:08;93935.50;;;0.27;100.00
10518;BME280;5307;42.548;22.968;2023-01-29T02:02:40;93928.59;;;0.22;100.00
10518;BME280;5307;42.548;22.968;2023-01-29T02:05:26;93925.22;;;0.43;100.00
10518;BME280;5307;42.548;22.968;2023-01-29T02:08:11;93913.28;;;0.30;100.00
10518;BME280;5307;42.548;22.968;2023-01-29T02:10:57;93930.50;;;0.15;100.00
10518;BME280;5307;42.548;22.968;2023-01-29T02:13:23;93927.44;;;0.20;100.00
10518;BME280;5307;42.548;22.968;2023-01-29T02:15:50;93927.44;;;0.20;100.00
10518;BME280;5307;42.548;22.968;2023-01-29T02:18:20;93922.81;;;0.06;100.00
10518;BME280;5307;42.548;22.968;2023-01-29T02:20:56;93928.22;;;0.17;100.00
10518;BME280;5307;42.548;22.968;2023-01-29T02:23:55;93932.84;;;0.27;100.00
10518;BME280;5307;42.548;22.968;2023-01-29T02:26:49;93927.50;;;0.34;100.00
10518;BME280;5307;42.548;22.968;2023-01-29T02:29:25;93931.31;;;0.33;100.00
10518;BME280;5307;42.548;22.968;2023-01-29T02:32:08;93933.59;;;0.20;100.00
10518;BME280;5307;42.548;22.968;2023-01-29T02:34:46;93940.53;;;0.32;100.00
10518;BME280;5307;42.548;22.968;2023-01-29T02:37:36;93939.34;;;0.22;100.00
10518;BME280;5307;42.548;22.968;2023-01-29T02:40:11;93942.06;;;0.33;100.00
10518;BME280;5307;42.548;22.968;2023-01-29T02:42:45;93946.56;;;0.04;100.00
10518;BME280;5307;42.548;22.968;2023-01-29T02:45:18;93952.66;;;-0.03;100.00
10518;BME280;5307;42.548;22.968;2023-01-29T02:47:54;93948.94;;;0.20;100.00
10518;BME280;5307;42.548;22.968;2023-01-29T02:50:25;93948.94;;;0.27;100.00
10518;BME280;5307;42.548;22.968;2023-01-29T02:52:57;93951.63;;;0.23;100.00
10518;BME280;5307;42.548;22.968;2023-01-29T02:55:30;93961.16;;;0.14;100.00
10518;BME280;5307;42.548;22.968;2023-01-29T02:58:02;93957.38;;;0.22;100.00
10518;BME280;5307;42.548;22.968;2023-01-29T03:00:34;93956.28;;;0.37;100.00
10518;BME280;5307;42.548;22.968;2023-01-29T03:03:07;93964.34;;;0.37;100.00
10518;BME280;5307;42.548;22.968;2023-01-29T03:05:43;93962.25;;;-0.09;100.00
10518;BME280;5307;42.548;22.968;2023-01-29T03:08:22;93964.28;;;0.19;100.00
10518;BME280;5307;42.548;22.968;2023-01-29T03:11:02;93948.13;;;0.12;100.00
10518;BME280;5307;42.548;22.968;2023-01-29T03:13:34;93965.75;;;0.10;100.00
10518;BME280;5307;42.548;22.968;2023-01-29T03:16:07;93964.97;;;0.02;100.00
10518;BME280;5307;42.548;22.968;2023-01-29T03:18:37;93964.22;;;0.12;100.00
10518;BME280;5307;42.548;22.968;2023-01-29T03:21:14;93965.03;;;0.16;100.00
10518;BME280;5307;42.548;22.968;2023-01-29T03:24:02;93962.72;;;0.15;100.00
10518;BME280;5307;42.548;22.968;2023-01-29T03:26:47;93963.91;;;0.24;100.00
10518;BME280;5307;42.548;22.968;2023-01-29T03:29:33;93961.16;;;0.14;100.00
10518;BME280;5307;42.548;22.968;2023-01-29T03:32:20;93972.72;;;0.14;100.00
10518;BME280;5307;42.548;22.968;2023-01-29T03:34:53;93963.09;;;0.10;100.00
10518;BME280;5307;42.548;22.968;2023-01-29T03:37:28;93971.13;;;0.10;100.00
10518;BME280;5307;42.548;22.968;2023-01-29T03:39:57;93973.09;;;0.16;100.00
10518;BME280;5307;42.548;22.968;2023-01-29T03:42:26;93970.38;;;0.13;100.00
10518;BME280;5307;42.548;22.968;2023-01-29T03:45:00;93961.59;;;0.23;100.00
10518;BME280;5307;42.548;22.968;2023-01-29T03:47:41;93963.09;;;0.10;100.00
10518;BME280;5307;42.548;22.968;2023-01-29T03:50:16;93972.31;;;0.16;100.00
10518;BME280;5307;42.548;22.968;2023-01-29T03:52:50;93961.22;;;0.17;100.00
10518;BME280;5307;42.548;22.968;2023-01-29T03:55:25;93969.97;;;0.00;100.00
10518;BME280;5307;42.548;22.968;2023-01-29T03:57:57;93971.06;;;-0.05;100.00
10518;BME280;5307;42.548;22.968;2023-01-29T04:00:28;93966.56;;;0.21;100.00
10518;BME280;5307;42.548;22.968;2023-01-29T04:03:04;93975.75;;;0.13;100.00
10518;BME280;5307;42.548;22.968;2023-01-29T04:05:38;93973.84;;;0.17;100.00
10518;BME280;5307;42.548;22.968;2023-01-29T04:08:14;93968.13;;;0.22;100.00
10518;BME280;5307;42.548;22.968;2023-01-29T04:10:46;93965.81;;;0.27;100.00
10518;BME280;5307;42.548;22.968;2023-01-29T04:13:15;93965.81;;;0.24;100.00
10518;BME280;5307;42.548;22.968;2023-01-29T04:15:46;93978.09;;;0.18;100.00
10518;BME280;5307;42.548;22.968;2023-01-29T04:18:16;93968.09;;;0.15;100.00
10518;BME280;5307;42.548;22.968;2023-01-29T04:20:43;93965.81;;;0.17;100.00
10518;BME280;5307;42.548;22.968;2023-01-29T04:23:19;93980.00;;;0.21;100.00
10518;BME280;5307;42.548;22.968;2023-01-29T04:25:52;93971.22;;;0.31;100.00
10518;BME280;5307;42.548;22.968;2023-01-29T04:28:24;93981.53;;;0.18;100.00
10518;BME280;5307;42.548;22.968;2023-01-29T04:30:53;93983.84;;;0.27;100.00
10518;BME280;5307;42.548;22.968;2023-01-29T04:33:33;93987.28;;;0.20;100.00
10518;BME280;5307;42.548;22.968;2023-01-29T04:36:19;93977.28;;;0.10;100.00
10518;BME280;5307;42.548;22.968;2023-01-29T04:38:58;93966.47;;;-0.01;100.00
10518;BME280;5307;42.548;22.968;2023-01-29T04:41:31;93982.69;;;0.17;100.00
10518;BME280;5307;42.548;22.968;2023-01-29T04:44:04;93991.13;;;0.23;100.00
10518;BME280;5307;42.548;22.968;2023-01-29T04:46:41;93990.69;;;0.10;100.00
10518;BME280;5307;42.548;22.968;2023-01-29T04:49:22;93995.69;;;0.12;100.00
10518;BME280;5307;42.548;22.968;2023-01-29T04:51:57;93991.44;;;0.04;100.00
10518;BME280;5307;42.548;22.968;2023-01-29T04:54:33;93991.41;;;-0.04;100.00
10518;BME280;5307;42.548;22.968;2023-01-29T04:57:07;93999.06;;;-0.06;100.00
10518;BME280;5307;42.548;22.968;2023-01-29T04:59:40;94000.22;;;-0.07;100.00
10518;BME280;5307;42.548;22.968;2023-01-29T05:02:09;93992.91;;;-0.06;100.00
10518;BME280;5307;42.548;22.968;2023-01-29T05:04:40;94004.13;;;0.10;100.00
10518;BME280;5307;42.548;22.968;2023-01-29T05:07:10;93991.84;;;0.06;100.00
10518;BME280;5307;42.548;22.968;2023-01-29T05:09:41;93991.81;;;0.02;100.00
10518;BME280;5307;42.548;22.968;2023-01-29T05:26:51;94016.31;;;-0.07;100.00
10518;BME280;5307;42.548;22.968;2023-01-29T05:29:35;94009.06;;;0.01;100.00
10518;BME280;5307;42.548;22.968;2023-01-29T05:32:02;94001.81;;;0.05;100.00
10518;BME280;5307;42.548;22.968;2023-01-29T05:34:30;94006.34;;;-0.10;100.00
10518;BME280;5307;42.548;22.968;2023-01-29T05:36:57;94010.56;;;-0.02;100.00
10518;BME280;5307;42.548;22.968;2023-01-29T05:39:24;94004.44;;;-0.06;100.00
10518;BME280;5307;42.548;22.968;2023-01-29T05:41:52;94006.72;;;-0.04;100.00
10518;BME280;5307;42.548;22.968;2023-01-29T05:44:19;94018.22;;;-0.11;100.00
10518;BME280;5307;42.548;22.968;2023-01-29T05:46:45;94013.16;;;-0.23;100.00
10518;BME280;5307;42.548;22.968;2023-01-29T05:49:12;94015.44;;;-0.25;100.00
10518;BME280;5307;42.548;22.968;2023-01-29T05:51:39;94016.22;;;-0.21;100.00
10518;BME280;5307;42.548;22.968;2023-01-29T05:54:06;94015.50;;;-0.14;100.00
10518;BME280;5307;42.548;22.968;2023-01-29T05:56:32;94014.00;;;-0.12;100.00
10518;BME280;5307;42.548;22.968;2023-01-29T05:59:01;94024.66;;;-0.19;100.00
10518;BME280;5307;42.548;22.968;2023-01-29T06:01:27;94031.19;;;-0.20;100.00
10518;BME280;5307;42.548;22.968;2023-01-29T06:03:54;94032.31;;;-0.28;100.00
10518;BME280;5307;42.548;22.968;2023-01-29T06:06:21;94028.47;;;-0.27;100.00
10518;BME280;5307;42.548;22.968;2023-01-29T06:08:48;94035.38;;;-0.26;100.00
10518;BME280;5307;42.548;22.968;2023-01-29T06:11:16;94043.81;;;-0.24;100.00
10518;BME280;5307;42.548;22.968;2023-01-29T06:13:43;94039.69;;;-0.11;100.00
10518;BME280;5307;42.548;22.968;2023-01-29T06:16:12;94042.75;;;-0.12;100.00
10518;BME280;5307;42.548;22.968;2023-01-29T06:18:39;94043.50;;;-0.12;100.00
10518;BME280;5307;42.548;22.968;2023-01-29T06:21:08;94049.28;;;-0.06;100.00
10518;BME280;5307;42.548;22.968;2023-01-29T06:23:35;94050.84;;;-0.02;100.00
10518;BME280;5307;42.548;22.968;2023-01-29T06:26:03;94048.13;;;-0.12;100.00
10518;BME280;5307;42.548;22.968;2023-01-29T06:28:30;94063.06;;;-0.11;100.00
10518;BME280;5307;42.548;22.968;2023-01-29T06:30:57;94065.38;;;-0.10;100.00
10518;BME280;5307;42.548;22.968;2023-01-29T06:33:26;94072.66;;;-0.10;100.00
10518;BME280;5307;42.548;22.968;2023-01-29T06:35:56;94069.97;;;-0.10;100.00
10518;BME280;5307;42.548;22.968;2023-01-29T06:38:23;94076.59;;;0.03;100.00
10518;BME280;5307;42.548;22.968;2023-01-29T06:40:50;94074.59;;;-0.07;100.00
10518;BME280;5307;42.548;22.968;2023-01-29T06:43:17;94085.31;;;-0.07;100.00
10518;BME280;5307;42.548;22.968;2023-01-29T06:45:48;94084.88;;;-0.16;100.00
10518;BME280;5307;42.548;22.968;2023-01-29T06:48:15;94087.25;;;-0.04;100.00
10518;BME280;5307;42.548;22.968;2023-01-29T06:50:50;94081.50;;;-0.03;100.00
10518;BME280;5307;42.548;22.968;2023-01-29T06:53:20;94077.03;;;0.16;100.00
10518;BME280;5307;42.548;22.968;2023-01-29T06:55:50;94082.44;;;0.23;100.00
10518;BME280;5307;42.548;22.968;2023-01-29T06:58:17;94081.69;;;0.26;100.00
10518;BME280;5307;42.548;22.968;2023-01-29T07:00:44;94079.72;;;0.16;100.00
10518;BME280;5307;42.548;22.968;2023-01-29T07:03:11;94090.56;;;0.30;100.00
10518;BME280;5307;42.548;22.968;2023-01-29T07:05:38;94080.19;;;0.32;100.00
10518;BME280;5307;42.548;22.968;2023-01-29T07:08:06;94082.50;;;0.34;100.00
10518;BME280;5307;42.548;22.968;2023-01-29T07:10:34;94083.28;;;0.38;100.00
10518;BME280;5307;42.548;22.968;2023-01-29T07:13:00;94084.06;;;0.42;100.00
10518;BME280;5307;42.548;22.968;2023-01-29T07:15:27;94092.09;;;0.35;100.00
10518;BME280;5307;42.548;22.968;2023-01-29T07:17:55;94093.19;;;0.26;100.00
10518;BME280;5307;42.548;22.968;2023-01-29T07:20:23;94088.25;;;0.32;100.00
10518;BME280;5307;42.548;22.968;2023-01-29T07:22:50;94095.56;;;0.39;100.00
10518;BME280;5307;42.548;22.968;2023-01-29T07:25:18;94097.13;;;0.43;100.00
10518;BME280;5307;42.548;22.968;2023-01-29T07:27:45;94103.22;;;0.37;100.00
10518;BME280;5307;42.548;22.968;2023-01-29T07:30:13;94099.84;;;0.50;100.00
10518;BME280;5307;42.548;22.968;2023-01-29T07:32:39;94098.69;;;0.44;100.00
10518;BME280;5307;42.548;22.968;2023-01-29T07:35:07;94102.22;;;0.59;100.00
10518;BME280;5307;42.548;22.968;2023-01-29T07:37:34;94103.72;;;0.56;100.00
10518;BME280;5307;42.548;22.968;2023-01-29T07:40:04;94103.75;;;0.64;100.00
10518;BME280;5307;42.548;22.968;2023-01-29T07:42:37;94111.00;;;0.52;100.00
10518;BME280;5307;42.548;22.968;2023-01-29T07:45:07;94105.66;;;0.59;100.00
10518;BME280;5307;42.548;22.968;2023-01-29T07:47:34;94105.69;;;0.67;100.00
10518;BME280;5307;42.548;22.968;2023-01-29T07:50:02;94113.22;;;0.36;100.00
10518;BME280;5307;42.548;22.968;2023-01-29T07:52:29;94115.28;;;0.68;100.00
10518;BME280;5307;42.548;22.968;2023-01-29T07:54:56;94111.75;;;0.53;100.00
10518;BME280;5307;42.548;22.968;2023-01-29T07:57:23;94109.94;;;0.71;100.00
10518;BME280;5307;42.548;22.968;2023-01-29T07:59:52;94118.00;;;0.75;100.00
10518;BME280;5307;42.548;22.968;2023-01-29T08:02:18;94122.09;;;0.47;100.00
10518;BME280;5307;42.548;22.968;2023-01-29T08:04:45;94115.50;;;0.34;100.00
10518;BME280;5307;42.548;22.968;2023-01-29T08:07:12;94122.94;;;0.62;100.00
10518;BME280;5307;42.548;22.968;2023-01-29T08:09:39;94124.81;;;0.54;100.00
10518;BME280;5307;42.548;22.968;2023-01-29T08:12:06;94125.56;;;0.55;100.00
10518;BME280;5307;42.548;22.968;2023-01-29T08:14:32;94126.78;;;0.61;100.00
10518;BME280;5307;42.548;22.968;2023-01-29T08:17:01;94123.41;;;0.82;100.00
10518;BME280;5307;42.548;22.968;2023-01-29T08:19:27;94129.59;;;0.89;100.00
10518;BME280;5307;42.548;22.968;2023-01-29T08:21:54;94129.53;;;0.75;100.00
10518;BME280;5307;42.548;22.968;2023-01-29T08:24:21;94123.25;;;0.50;100.00
10518;BME280;5307;42.548;22.968;2023-01-29T08:26:48;94127.84;;;0.46;100.00
10518;BME280;5307;42.548;22.968;2023-01-29T08:29:14;94129.53;;;0.75;100.00
10518;BME280;5307;42.548;22.968;2023-01-29T08:31:41;94136.41;;;0.69;100.00
10518;BME280;5307;42.548;22.968;2023-01-29T08:34:09;94131.47;;;0.82;100.00
10518;BME280;5307;42.548;22.968;2023-01-29T08:36:36;94137.94;;;0.67;100.00
10518;BME280;5307;42.548;22.968;2023-01-29T08:39:03;94129.16;;;0.84;100.00
10518;BME280;5307;42.548;22.968;2023-01-29T08:41:30;94135.69;;;0.79;100.00
10518;BME280;5307;42.548;22.968;2023-01-29T08:43:56;94136.09;;;0.85;100.00
10518;BME280;5307;42.548;22.968;2023-01-29T08:46:25;94156.41;;;0.72;100.00
10518;BME280;5307;42.548;22.968;2023-01-29T08:48:51;94142.91;;;0.65;100.00
10518;BME280;5307;42.548;22.968;2023-01-29T08:51:21;94154.50;;;0.79;100.00
10518;BME280;5307;42.548;22.968;2023-01-29T08:53:50;94143.22;;;0.52;100.00
10518;BME280;5307;42.548;22.968;2023-01-29T08:56:16;94153.66;;;0.65;100.00
10518;BME280;5307;42.548;22.968;2023-01-29T08:58:43;94159.94;;;0.90;100.00
10518;BME280;5307;42.548;22.968;2023-01-29T09:01:12;94151.53;;;1.06;100.00
10518;BME280;5307;42.548;22.968;2023-01-29T09:03:39;94160.31;;;0.92;100.00
10518;BME280;5307;42.548;22.968;2023-01-29T09:06:08;94161.09;;;0.93;100.00
10518;BME280;5307;42.548;22.968;2023-01-29T09:08:37;94157.88;;;0.62;100.00
10518;BME280;5307;42.548;22.968;2023-01-29T09:11:04;94169.47;;;0.77;100.00
10518;BME280;5307;42.548;22.968;2023-01-29T09:13:32;94171.41;;;0.83;100.00
10518;BME280;5307;42.548;22.968;2023-01-29T09:16:00;94170.97;;;0.71;100.00
10518;BME280;5307;42.548;22.968;2023-01-29T09:18:28;94162.72;;;0.39;100.00
10518;BME280;5307;42.548;22.968;2023-01-29T09:20:55;94167.09;;;0.65;100.00
10518;BME280;5307;42.548;22.968;2023-01-29T09:23:22;94167.78;;;0.51;100.00
10518;BME280;5307;42.548;22.968;2023-01-29T09:25:50;94166.25;;;0.50;100.00
10518;BME280;5307;42.548;22.968;2023-01-29T09:28:16;94165.41;;;0.42;100.00
10518;BME280;5307;42.548;22.968;2023-01-29T09:30:43;94152.50;;;0.58;100.00
10518;BME280;5307;42.548;22.968;2023-01-29T09:33:10;94153.22;;;0.55;100.00
10518;BME280;5307;42.548;22.968;2023-01-29T09:35:39;94150.13;;;0.46;100.00
10518;BME280;5307;42.548;22.968;2023-01-29T09:38:06;94152.88;;;0.64;100.00
10518;BME280;5307;42.548;22.968;2023-01-29T09:40:42;94158.25;;;0.64;100.00
10518;BME280;5307;42.548;22.968;2023-01-29T09:43:19;94154.38;;;0.54;100.00
10518;BME280;5307;42.548;22.968;2023-01-29T09:45:52;94138.69;;;0.64;100.00
10518;BME280;5307;42.548;22.968;2023-01-29T09:48:22;94142.16;;;0.68;100.00
10518;BME280;5307;42.548;22.968;2023-01-29T09:50:53;94144.69;;;0.39;100.00
10518;BME280;5307;42.548;22.968;2023-01-29T09:53:27;94131.72;;;0.52;100.00
10518;BME280;5307;42.548;22.968;2023-01-29T09:56:01;94132.06;;;0.47;100.00
10518;BME280;5307;42.548;22.968;2023-01-29T09:58:32;94125.00;;;0.97;100.00
10518;BME280;5307;42.548;22.968;2023-01-29T10:01:10;94130.38;;;0.97;100.00
10518;BME280;5307;42.548;22.968;2023-01-29T10:04:05;94124.16;;;0.79;100.00
10518;BME280;5307;42.548;22.968;2023-01-29T10:06:46;94131.44;;;0.71;100.00
10518;BME280;5307;42.548;22.968;2023-01-29T10:09:46;94122.72;;;0.99;100.00
10518;BME280;5307;42.548;22.968;2023-01-29T10:12:41;94125.75;;;0.91;100.00
10518;BME280;5307;42.548;22.968;2023-01-29T10:21:38;94105.75;;;0.84;100.00
10518;BME280;5307;42.548;22.968;2023-01-29T10:24:19;94105.81;;;1.09;100.00
10518;BME280;5307;42.548;22.968;2023-01-29T10:26:50;94098.81;;;0.80;100.00
10518;BME280;5307;42.548;22.968;2023-01-29T10:29:19;94096.53;;;0.82;100.00
10518;BME280;5307;42.548;22.968;2023-01-29T10:31:51;94088.91;;;1.05;100.00
10518;BME280;5307;42.548;22.968;2023-01-29T10:34:24;94075.47;;;1.05;100.00
10518;BME280;5307;42.548;22.968;2023-01-29T10:36:54;94086.63;;;1.07;100.00
10518;BME280;5307;42.548;22.968;2023-01-29T10:39:22;94089.34;;;1.14;100.00
10518;BME280;5307;42.548;22.968;2023-01-29T10:42:01;94085.13;;;1.35;100.00
10518;BME280;5307;42.548;22.968;2023-01-29T10:44:39;94085.47;;;1.05;100.00
10518;BME280;5307;42.548;22.968;2023-01-29T10:47:24;94085.81;;;0.93;100.00
10518;BME280;5307;42.548;22.968;2023-01-29T10:50:05;94087.44;;;1.33;100.00
10518;BME280;5307;42.548;22.968;2023-01-29T10:52:48;94084.75;;;1.33;100.00
10518;BME280;5307;42.548;22.968;2023-01-29T10:55:25;94080.50;;;1.21;100.00
10518;BME280;5307;42.548;22.968;2023-01-29T10:58:05;94075.13;;;1.21;100.00
10518;BME280;5307;42.548;22.968;2023-01-29T11:00:37;94078.16;;;1.02;100.00
10518;BME280;5307;42.548;22.968;2023-01-29T11:03:14;94078.91;;;0.95;100.00
10518;BME280;5307;42.548;22.968;2023-01-29T11:05:48;94072.75;;;0.91;100.00
10518;BME280;5307;42.548;22.968;2023-01-29T11:08:22;94073.56;;;0.99;100.00
10518;BME280;5307;42.548;22.968;2023-01-29T11:11:01;94072.75;;;0.95;100.00
10518;BME280;5307;42.548;22.968;2023-01-29T11:13:34;94073.94;;;1.08;100.00
10518;BME280;5307;42.548;22.968;2023-01-29T11:16:04;94068.97;;;1.17;100.00
10518;BME280;5307;42.548;22.968;2023-01-29T11:18:52;94063.22;;;1.36;100.00
10518;BME280;5307;42.548;22.968;2023-01-29T11:21:19;94070.53;;;1.50;100.00
10518;BME280;5307;42.548;22.968;2023-01-29T11:34:19;94051.59;;;0.82;100.00
10518;BME280;5307;42.548;22.968;2023-01-29T11:36:58;94045.13;;;1.08;100.00
10518;BME280;5307;42.548;22.968;2023-01-29T11:39:27;94045.53;;;1.14;100.00
10518;BME280;5307;42.548;22.968;2023-01-29T11:41:56;94041.94;;;0.67;100.00
10518;BME280;5307;42.548;22.968;2023-01-29T11:44:32;94032.81;;;0.97;100.00
10518;BME280;5307;42.548;22.968;2023-01-29T11:47:17;94033.19;;;0.92;100.00
10518;BME280;5307;42.548;22.968;2023-01-29T11:49:48;94025.94;;;1.24;100.00
10518;BME280;5307;42.548;22.968;2023-01-29T11:52:22;94028.53;;;0.74;100.00
10518;BME280;5307;42.548;22.968;2023-01-29T11:54:52;94020.16;;;1.01;100.00
10518;BME280;5307;42.548;22.968;2023-01-29T11:57:25;94024.41;;;1.34;100.00
10518;BME280;5307;42.548;22.968;2023-01-29T11:59:54;94029.38;;;1.10;100.00
10518;BME280;5307;42.548;22.968;2023-01-29T12:02:27;94029.72;;;0.98;100.00
10518;BME280;5307;42.548;22.968;2023-01-29T12:05:00;94028.59;;;0.92;100.00
10518;BME280;5307;42.548;22.968;2023-01-29T12:07:29;94025.91;;;0.99;100.00
10518;BME280;5307;42.548;22.968;2023-01-29T12:09:57;94021.28;;;0.93;100.00
10518;BME280;5307;42.548;22.968;2023-01-29T12:12:40;94024.78;;;1.22;100.00
10518;BME280;5307;42.548;22.968;2023-01-29T12:15:26;94030.56;;;1.31;100.00
10518;BME280;5307;42.548;22.968;2023-01-29T12:18:00;94022.06;;;1.07;100.00
10518;BME280;5307;42.548;22.968;2023-01-29T12:20:34;94028.25;;;1.15;100.00
10518;BME280;5307;42.548;22.968;2023-01-29T12:23:18;94033.59;;;1.01;100.00
10518;BME280;5307;42.548;22.968;2023-01-29T12:25:53;94032.81;;;1.11;100.00
10518;BME280;5307;42.548;22.968;2023-01-29T12:28:30;94035.53;;;1.00;100.00
10518;BME280;5307;42.548;22.968;2023-01-29T12:31:13;94030.53;;;1.24;100.00
10518;BME280;5307;42.548;22.968;2023-01-29T12:33:49;94037.06;;;1.23;100.00
10518;BME280;5307;42.548;22.968;2023-01-29T12:36:23;94037.06;;;1.19;100.00
10518;BME280;5307;42.548;22.968;2023-01-29T12:38:52;94035.56;;;1.29;100.00
10518;BME280;5307;42.548;22.968;2023-01-29T12:41:27;94033.63;;;1.26;99.92
10518;BME280;5307;42.548;22.968;2023-01-29T12:43:59;94040.53;;;1.23;100.00
10518;BME280;5307;42.548;22.968;2023-01-29T12:46:32;94035.94;;;1.13;99.32
10518;BME280;5307;42.548;22.968;2023-01-29T12:49:13;94041.31;;;1.31;99.84
10518;BME280;5307;42.548;22.968;2023-01-29T12:52:01;94032.06;;;1.03;99.65
10518;BME280;5307;42.548;22.968;2023-01-29T12:54:36;94040.94;;;1.14;99.79
10518;BME280;5307;42.548;22.968;2023-01-29T12:57:08;94033.22;;;1.02;99.91
10518;BME280;5307;42.548;22.968;2023-01-29T12:59:42;94028.97;;;0.87;99.58
10518;BME280;5307;42.548;22.968;2023-01-29T13:05:00;94036.69;;;1.13;99.33
10518;BME280;5307;42.548;22.968;2023-01-29T13:07:34;94029.00;;;1.23;98.96
10518;BME280;5307;42.548;22.968;2023-01-29T13:10:10;94037.47;;;1.46;99.05
10518;BME280;5307;42.548;22.968;2023-01-29T13:12:58;94030.94;;;1.33;98.37
10518;BME280;5307;42.548;22.968;2023-01-29T13:16:11;94035.16;;;1.19;98.08
10518;BME280;5307;42.548;22.968;2023-01-29T13:18:45;94043.59;;;1.07;97.06
10518;BME280;5307;42.548;22.968;2023-01-29T13:21:16;94030.91;;;1.08;97.92
10518;BME280;5307;42.548;22.968;2023-01-29T13:23:47;94034.41;;;1.44;97.89
10518;BME280;5307;42.548;22.968;2023-01-29T13:26:19;94034.41;;;1.44;97.33
10518;BME280;5307;42.548;22.968;2023-01-29T13:29:02;94039.00;;;1.51;97.36
10518;BME280;5307;42.548;22.968;2023-01-29T13:31:32;94040.56;;;1.59;98.06
10518;BME280;5307;42.548;22.968;2023-01-29T13:34:10;94038.22;;;1.11;96.62
10518;BME280;5307;42.548;22.968;2023-01-29T13:36:41;94045.16;;;1.33;96.65
10518;BME280;5307;42.548;22.968;2023-01-29T13:39:19;94048.63;;;1.34;95.46
10518;BME280;5307;42.548;22.968;2023-01-29T13:42:15;94049.00;;;1.32;96.09
10518;BME280;5307;42.548;22.968;2023-01-29T13:44:46;94048.22;;;1.17;95.94
10518;BME280;5307;42.548;22.968;2023-01-29T13:47:21;94043.25;;;1.48;96.44
10518;BME280;5307;42.548;22.968;2023-01-29T13:49:54;94048.25;;;1.46;95.98
10518;BME280;5307;42.548;22.968;2023-01-29T13:52:28;94047.47;;;1.63;96.30
10518;BME280;5307;42.548;22.968;2023-01-29T13:55:00;94055.16;;;1.29;95.23
10518;BME280;5307;42.548;22.968;2023-01-29T13:57:50;94051.72;;;1.57;95.71
10518;BME280;5307;42.548;22.968;2023-01-29T14:03:52;94057.84;;;1.54;95.83